Nearby METAR Reports

 

YBUD - Bundaberg, Australia
Distance from station: SSW 6km
Updated: 30/11/2021 15:00
Mostly cloudy
Mostly cloudy
 Wind from NE
Wind: NE 22 km/h
Temperature: 28°C
Heat Index: 30°C
Dew Point: 22°C
Humidity: 70%
Barometer: 1010 hPa
Clouds: Mostly cloudy
Visibility: 10 km
Cloud details: Partly cloudy 640 m
Mostly cloudy 853 m
Mostly cloudy 1097 m
2021/11/30 05:00 YBUD 300500Z AUTO 05012KT 9999 // SCT021 BKN028 BKN036 28/22 Q1010
YGLA - Gladstone, Australia
Distance from station: NW 159km
Updated: 30/11/2021 15:30
Overcast
Overcast
 Wind from E
Wind: E 15 km/h
Temperature: 26°C
Dew Point: 23°C
Humidity: 84%
Barometer: 1009 hPa
Clouds: Overcast
Visibility: 10 km
Cloud details: Mostly cloudy 549 m
Overcast 671 m
2021/11/30 05:30 YGLA 300530Z AUTO 08008KT 9999 // BKN018 OVC022 26/23 Q1009
YBRK - Rockhampton Airp, Australia
Distance from station: NW 252km
Updated: 30/11/2021 16:00
Heavy rain, Showers, Mostly cloudy
Heavy rain, Showers, Mostly cloudy
 Wind from SW
Wind: SW 9 km/h
Temperature: 24°C
Dew Point: 22°C
Humidity: 89%
Barometer: 1009 hPa
Summary: Heavy rain, Showers
Clouds: Mostly cloudy
Visibility: 4 km
Cloud details: Partly cloudy 518 m
Mostly cloudy 975 m
Mostly cloudy 1341 m
2021/11/30 06:00 YBRK 300600Z AUTO 23005KT 3900 +SHRA SCT017 BKN032 BKN044 24/22 Q1009
 
YBBN - Brisbane Intl Ar, Australia
Distance from station: SSE 292km
Updated: 30/11/2021 15:30
Mostly cloudy
Mostly cloudy
 Wind from SE
Wind: SE 13 km/h
Temperature: 23°C
Dew Point: 22°C
Humidity: 94%
Barometer: 1011 hPa
Clouds: Mostly cloudy
Visibility: 10 km
Cloud details: Few Clouds 396 m
Mostly cloudy 549 m
Mostly cloudy 853 m
2021/11/30 05:30 YBBN 300530Z 14007KT 9999 FEW013 BKN018 BKN028 23/22 Q1011
YAMB - Amberley, Australia
Distance from station: S 312km
Updated: 30/11/2021 15:30
Light rain, Mostly cloudy
Light rain, Mostly cloudy
 Wind from S
Wind: S 15 km/h
Temperature: 21°C
Dew Point: 20°C
Humidity: 94%
Barometer: 1012 hPa
Summary: Light rain
Clouds: Mostly cloudy
Visibility: 7 km
Cloud details: Partly cloudy 152 m
Mostly cloudy 457 m
Mostly cloudy 762 m
2021/11/30 05:30 YAMB 300530Z 18008KT 7000 -RA SCT005 BKN015 BKN025 21/20 Q1012
YBCG - Coolangatta Aws, Australia
Distance from station: SSE 386km
Updated: 30/11/2021 15:30
Light rain, Overcast
Light rain, Overcast
 Wind from SSW
Wind: SSW 7 km/h
Temperature: 22°C
Dew Point: 21°C
Humidity: 94%
Barometer: 1012 hPa
Summary: Light rain
Clouds: Overcast
Visibility: 10 km
Cloud details: Partly cloudy 762 m
Mostly cloudy 1067 m
Overcast 1250 m
2021/11/30 05:30 YBCG 300530Z AUTO 20004KT 9999 -RA SCT025 BKN035 OVC041 22/21 Q1012